Time;durP1;ratioP1;P1;durP2;ratioP2;P2;SDS_P1;SDS_P2;PMS_P1;PMS_P2;Temp;Humidity;BMP_temperature;BMP_pressure;BME280_temperature;BME280_humidity;BME280_pressure;Samples;Min_cycle;Max_cycle;Signal;HPM_P1;HPM_P2
2022/05/20 00:00:23;;;;;;;33.53;29.67;;;;;;;14.43;94.42;102012.16;5035696;28;20089;-74
2022/05/20 00:02:48;;;;;;;36.70;31.08;;;;;;;14.39;94.99;102018.25;5015858;28;20040;-75
2022/05/20 00:05:14;;;;;;;33.63;30.08;;;;;;;14.34;94.35;102016.19;5015293;28;20061;-76
2022/05/20 00:07:40;;;;;;;35.22;31.38;;;;;;;14.42;94.66;102009.63;5016471;28;20076;-76
2022/05/20 00:10:06;;;;;;;35.50;31.13;;;;;;;14.45;93.97;102014.66;5016912;28;20454;-77
2022/05/20 00:12:32;;;;;;;38.53;30.27;;;;;;;14.35;93.97;102010.53;5018091;28;20040;-75
2022/05/20 00:14:57;;;;;;;33.20;29.48;;;;;;;14.32;93.74;102013.69;5035898;28;20037;-74
2022/05/20 00:17:22;;;;;;;32.50;28.98;;;;;;;14.32;93.74;102005.53;5036013;28;20032;-74
2022/05/20 00:19:47;;;;;;;32.08;28.63;;;;;;;14.36;93.96;102006.75;5036815;28;20116;-75
2022/05/20 00:22:13;;;;;;;31.63;28.33;;;;;;;14.29;93.60;102005.16;5036995;28;20034;-76
2022/05/20 00:25:45;;;;;;;32.28;28.77;;;;;;;14.29;93.94;102010.59;5018655;28;20038;-74
2022/05/20 00:27:23;;;;;;;34.45;30.80;;;;;;;14.25;94.13;101996.59;5042800;28;20049;-76
2022/05/20 00:29:48;;;;;;;33.40;29.67;;;;;;;14.22;94.23;102004.34;5048902;28;20033;-76
2022/05/20 00:32:14;;;;;;;35.90;29.90;;;;;;;14.23;94.29;102001.41;5038862;28;20380;-77
2022/05/20 00:34:39;;;;;;;34.70;29.95;;;;;;;14.18;94.05;101993.09;5013862;28;20065;-74
2022/05/20 00:37:04;;;;;;;31.70;27.73;;;;;;;14.17;94.31;101997.69;5015518;28;20030;-73
2022/05/20 00:39:30;;;;;;;33.60;28.98;;;;;;;14.15;94.37;101991.63;4997515;28;20034;-74
2022/05/20 00:41:55;;;;;;;34.33;29.35;;;;;;;14.12;94.03;101999.41;4997789;28;20358;-75
2022/05/20 00:44:20;;;;;;;37.22;30.10;;;;;;;14.07;94.63;101991.91;5035024;28;20026;-75
2022/05/20 00:46:45;;;;;;;35.30;31.15;;;;;;;14.08;94.59;102004.44;5034384;28;20038;-74
2022/05/20 00:49:14;;;;;;;33.70;29.58;;;;;;;14.04;94.13;101994.22;5016508;28;20428;-74
2022/05/20 00:51:43;;;;;;;35.38;29.63;;;;;;;14.03;94.36;101996.13;5034314;28;20116;-75
2022/05/20 00:54:20;;;;;;;33.83;29.33;;;;;;;13.97;94.23;101995.09;5034830;28;20026;-75
2022/05/20 00:56:58;;;;;;;31.92;28.48;;;;;;;13.89;95.08;101986.38;5034710;28;20096;-75
2022/05/20 00:59:27;;;;;;;33.42;28.15;;;;;;;13.91;94.40;101995.97;5000206;28;20124;-76
2022/05/20 01:01:55;;;;;;;32.58;29.25;;;;;;;13.92;94.12;102000.38;5032497;28;20029;-75
2022/05/20 01:04:22;;;;;;;32.88;29.15;;;;;;;13.94;93.76;101995.53;5034098;28;20034;-74
2022/05/20 01:06:48;;;;;;;29.73;26.38;;;;;;;13.92;93.64;101994.09;5034680;28;20044;-74
2022/05/20 01:09:14;;;;;;;30.65;26.42;;;;;;;13.83;93.52;101993.53;5034626;28;20031;-74
2022/05/20 01:11:39;;;;;;;34.28;29.17;;;;;;;13.90;93.94;102001.66;5016484;28;20025;-78
2022/05/20 01:14:05;;;;;;;32.25;28.60;;;;;;;13.94;93.76;101998.25;5034129;28;20033;-73
2022/05/20 01:16:32;;;;;;;32.67;28.17;;;;;;;13.83;93.61;102001.69;5032281;28;20029;-75
2022/05/20 01:18:57;;;;;;;32.17;28.77;;;;;;;13.85;93.99;102004.22;5033626;28;20048;-76
2022/05/20 01:21:23;;;;;;;34.38;29.08;;;;;;;13.76;94.43;101995.47;5034095;28;20108;-76
2022/05/20 01:23:49;;;;;;;32.35;28.80;;;;;;;13.83;94.51;102002.53;5015676;28;20034;-76
2022/05/20 01:26:14;;;;;;;32.70;29.20;;;;;;;13.83;93.82;101993.53;5034364;28;20033;-74
2022/05/20 01:28:40;;;;;;;30.55;27.25;;;;;;;13.78;93.83;101996.06;5034024;28;20091;-77
2022/05/20 01:31:23;;;;;;;30.75;27.52;;;;;;;13.82;94.11;101991.84;5016231;28;20037;-76
2022/05/20 01:33:51;;;;;;;36.97;27.67;;;;;;;13.69;93.81;101983.78;5033610;28;20033;-76
2022/05/20 01:36:20;;;;;;;31.08;26.90;;;;;;;13.71;94.23;101982.50;5016442;28;20033;-76
2022/05/20 01:38:46;;;;;;;30.70;27.23;;;;;;;13.73;94.23;101980.41;5033982;28;20065;-74
2022/05/20 01:41:18;;;;;;;30.30;26.90;;;;;;;13.67;94.22;101973.13;5034027;28;20045;-76
2022/05/20 01:44:15;;;;;;;30.42;26.50;;;;;;;13.69;94.16;101975.63;5037632;28;20037;-76
2022/05/20 01:46:46;;;;;;;30.55;27.13;;;;;;;13.67;94.69;101975.84;5026441;28;20610;-77
2022/05/20 01:49:17;;;;;;;30.48;26.42;;;;;;;13.67;94.32;101966.84;5044287;28;20037;-75
2022/05/20 01:51:51;;;;;;;28.80;25.60;;;;;;;13.56;94.09;101958.31;5034748;28;20049;-74
2022/05/20 01:54:25;;;;;;;30.83;27.02;;;;;;;13.57;94.71;101962.72;5033290;28;20033;-75
2022/05/20 01:56:58;;;;;;;30.02;26.48;;;;;;;13.56;94.96;101961.03;5033654;28;20030;-75
2022/05/20 01:59:30;;;;;;;37.63;27.77;;;;;;;13.59;95.06;101960.59;5015536;28;20079;-75
2022/05/20 02:02:08;;;;;;;29.70;26.33;;;;;;;13.56;95.12;101962.94;5031235;28;20026;-74
2022/05/20 02:04:50;;;;;;;31.10;27.63;;;;;;;13.63;95.12;101964.56;5015258;28;20370;-77
2022/05/20 02:07:23;;;;;;;31.98;27.10;;;;;;;13.55;94.31;101956.66;5033898;28;20067;-76
2022/05/20 02:09:58;;;;;;;32.38;27.83;;;;;;;13.62;95.08;101949.28;5033290;28;20033;-75
2022/05/20 02:12:28;;;;;;;34.40;27.85;;;;;;;13.62;94.79;101946.56;5033206;28;20026;-75
2022/05/20 02:15:05;;;;;;;34.78;28.40;;;;;;;13.68;95.42;101950.31;5015689;28;20036;-75
2022/05/20 02:17:36;;;;;;;31.42;27.02;;;;;;;13.64;94.89;101951.78;5014396;28;20022;-76
2022/05/20 02:20:13;;;;;;;31.33;27.17;;;;;;;13.60;94.50;101954.13;5032913;28;20087;-75
2022/05/20 02:22:43;;;;;;;32.72;26.80;;;;;;;13.52;94.24;101956.25;5014472;28;20104;-77
2022/05/20 02:25:14;;;;;;;31.35;27.38;;;;;;;13.46;94.56;101952.53;5033375;28;20714;-79
2022/05/20 02:27:44;;;;;;;32.88;27.75;;;;;;;13.44;94.95;101949.19;5032918;28;20061;-76
2022/05/20 02:30:23;;;;;;;33.38;28.80;;;;;;;13.40;95.10;101951.50;5033249;28;20461;-77
2022/05/20 02:32:51;;;;;;;34.10;28.02;;;;;;;13.29;95.09;101950.25;5032414;28;20055;-77
2022/05/20 02:35:17;;;;;;;31.02;27.65;;;;;;;13.35;95.39;101945.88;5014922;28;20069;-75
2022/05/20 02:37:42;;;;;;;34.47;28.52;;;;;;;13.36;95.62;101949.44;5032775;28;20067;-75
2022/05/20 02:40:11;;;;;;;31.90;28.48;;;;;;;13.42;95.43;101954.00;5030295;28;20057;-77
2022/05/20 02:42:36;;;;;;;30.75;27.40;;;;;;;13.41;94.70;101960.50;5014599;28;20112;-77
2022/05/20 02:45:03;;;;;;;33.97;27.88;;;;;;;13.34;94.76;101962.41;5015012;28;20125;-77
2022/05/20 02:47:31;;;;;;;30.50;27.20;;;;;;;13.35;94.80;101951.31;5032949;28;20435;-76
2022/05/20 02:50:01;;;;;;;31.08;26.20;;;;;;;13.35;95.35;101950.50;5015348;28;20057;-75
2022/05/20 02:52:27;;;;;;;31.25;27.23;;;;;;;13.39;95.05;101940.84;5032540;28;20137;-76
2022/05/20 02:54:52;;;;;;;29.27;25.98;;;;;;;13.28;94.47;101945.88;5032602;28;20140;-76
2022/05/20 02:57:17;;;;;;;31.17;27.75;;;;;;;13.30;94.55;101951.13;5033220;28;20037;-76
2022/05/20 03:05:12;;;;;;;31.67;26.92;;;;;;;13.23;95.01;101945.69;5030718;28;20072;-76
2022/05/20 03:07:37;;;;;;;32.75;28.17;;;;;;;13.16;95.47;101942.16;5032785;28;20026;-77
2022/05/20 03:10:02;;;;;;;31.25;26.83;;;;;;;13.20;94.86;101929.81;5032917;28;20083;-77
2022/05/20 03:12:28;;;;;;;31.65;27.48;;;;;;;13.25;95.20;101927.28;5013251;28;20065;-76
2022/05/20 03:14:53;;;;;;;29.65;26.13;;;;;;;13.18;94.09;101933.78;5028292;28;20112;-76
2022/05/20 03:17:19;;;;;;;29.40;25.75;;;;;;;13.23;94.63;101931.28;5033152;28;20041;-77
2022/05/20 03:19:44;;;;;;;33.40;27.48;;;;;;;13.20;94.48;101937.97;5014838;28;20544;-77
2022/05/20 03:22:09;;;;;;;33.53;27.23;;;;;;;13.22;94.92;101943.19;5032972;28;20030;-76
2022/05/20 03:24:36;;;;;;;31.60;27.13;;;;;;;13.22;94.77;101941.28;5027820;28;20038;-77
2022/05/20 03:27:02;;;;;;;30.00;26.38;;;;;;;13.16;94.36;101931.28;5028702;28;20384;-76
2022/05/20 03:29:28;;;;;;;30.65;26.05;;;;;;;13.15;94.23;101931.50;5034480;28;20164;-76
2022/05/20 03:31:53;;;;;;;29.95;25.42;;;;;;;13.11;94.81;101923.78;5018076;28;20049;-76
2022/05/20 03:34:19;;;;;;;32.20;26.85;;;;;;;13.10;94.84;101921.28;5028404;28;20475;-76
2022/05/20 03:36:46;;;;;;;29.35;25.88;;;;;;;13.09;94.76;101928.63;5051973;28;20041;-77
2022/05/20 03:39:15;;;;;;;30.17;26.23;;;;;;;12.97;95.11;101926.78;5035752;28;20030;-76
2022/05/20 03:41:41;;;;;;;35.47;25.98;;;;;;;13.07;95.77;101929.88;5032698;28;20029;-76
2022/05/20 03:44:09;;;;;;;30.25;26.38;;;;;;;13.13;95.70;101926.28;5032356;28;20029;-77
2022/05/20 03:46:44;;;;;;;31.42;26.95;;;;;;;13.15;95.28;101924.22;5024367;28;20033;-76
2022/05/20 03:49:09;;;;;;;31.75;27.73;;;;;;;13.22;95.68;101925.00;5032616;28;20025;-76
2022/05/20 03:51:35;;;;;;;34.83;30.45;;;;;;;13.21;96.75;101917.06;5032401;28;20159;-76
2022/05/20 03:54:01;;;;;;;39.25;32.13;;;;;;;13.25;97.13;101907.44;5028404;28;20053;-77
2022/05/20 03:56:27;;;;;;;40.28;33.20;;;;;;;13.33;97.46;101915.34;5032892;28;20029;-77
2022/05/20 03:58:52;;;;;;;45.42;34.97;;;;;;;13.41;97.64;101915.09;5014395;28;20500;-76
2022/05/20 04:04:02;;;;;;;40.08;31.80;;;;;;;13.34;96.72;101903.44;5027973;28;20044;-77
2022/05/20 04:06:27;;;;;;;41.33;32.90;;;;;;;13.37;96.64;101902.16;5032297;28;20037;-76
2022/05/20 04:08:53;;;;;;;42.00;34.30;;;;;;;13.32;96.31;101888.38;5014411;28;20034;-76
2022/05/20 04:11:18;;;;;;;43.20;33.78;;;;;;;13.35;96.29;101893.41;5036428;28;20041;-76
2022/05/20 04:13:44;;;;;;;41.40;33.05;;;;;;;13.42;95.82;101900.47;5041796;28;20045;-76
2022/05/20 04:16:12;;;;;;;39.55;33.53;;;;;;;13.36;96.47;101893.19;5041119;28;20037;-77
2022/05/20 04:18:43;;;;;;;47.85;36.72;;;;;;;13.38;96.52;101893.78;5032663;28;20378;-77
2022/05/20 04:21:13;;;;;;;48.58;37.95;;;;;;;13.49;96.75;101880.56;5032525;28;20057;-76
2022/05/20 04:23:39;;;;;;;46.58;38.00;;;;;;;13.47;97.04;101880.78;5006250;28;20030;-77
2022/05/20 04:26:05;;;;;;;43.55;38.50;;;;;;;13.49;97.08;101884.09;5033167;28;20115;-76
2022/05/20 04:28:30;;;;;;;44.25;38.22;;;;;;;13.40;96.99;101886.25;5035746;28;20590;-76
2022/05/20 04:30:58;;;;;;;44.40;36.85;;;;;;;13.40;97.09;101891.69;5035624;28;20504;-76
2022/05/20 04:33:24;;;;;;;43.85;36.78;;;;;;;13.48;97.69;101890.59;5014414;28;20034;-76
2022/05/20 04:35:50;;;;;;;44.65;38.42;;;;;;;13.44;96.86;101889.38;5017680;28;20503;-76
2022/05/20 04:38:15;;;;;;;45.75;39.03;;;;;;;13.38;96.84;101882.09;5035336;28;20120;-75
2022/05/20 04:40:40;;;;;;;46.50;39.13;;;;;;;13.51;97.30;101886.59;5034889;28;20108;-76
2022/05/20 04:48:36;;;;;;;44.92;37.95;;;;;;;13.45;97.38;101896.47;5035241;28;20036;-76
2022/05/20 04:51:01;;;;;;;46.67;38.03;;;;;;;13.50;97.55;101904.81;5034802;28;20029;-75
2022/05/20 04:56:11;;;;;;;43.13;37.17;;;;;;;13.58;97.62;101922.75;5043031;28;20075;-75
2022/05/20 04:58:37;;;;;;;47.55;36.90;;;;;;;13.58;97.98;101914.59;5031097;28;20420;-76
2022/05/20 05:01:02;;;;;;;49.50;37.45;;;;;;;13.58;98.26;101915.41;5038868;28;20037;-76
2022/05/20 05:03:27;;;;;;;43.63;37.20;;;;;;;13.58;98.40;101909.97;5035719;28;20037;-76
2022/05/20 05:05:53;;;;;;;54.00;37.53;;;;;;;13.61;98.92;101920.41;5035543;28;20033;-76
2022/05/20 05:08:18;;;;;;;54.55;37.17;;;;;;;13.62;98.57;101919.38;5017644;28;20064;-76
2022/05/20 05:10:44;;;;;;;48.75;35.90;;;;;;;13.71;97.68;101906.34;5035203;28;20461;-76
2022/05/20 05:13:10;;;;;;;47.95;36.50;;;;;;;13.71;98.22;101906.34;5027158;28;20033;-76
2022/05/20 05:15:37;;;;;;;46.55;35.58;;;;;;;13.74;97.69;101911.34;5017134;28;20029;-76
2022/05/20 05:20:44;;;;;;;49.83;35.63;;;;;;;13.89;98.26;101916.47;5035108;28;20065;-76
2022/05/20 05:23:10;;;;;;;43.70;34.13;;;;;;;13.89;98.19;101913.75;5034458;28;20123;-76
2022/05/20 05:25:36;;;;;;;43.40;33.40;;;;;;;13.88;98.22;101914.81;5034918;28;20096;-76
2022/05/20 05:28:03;;;;;;;35.72;31.58;;;;;;;13.90;97.98;101920.84;5034394;28;20037;-76
2022/05/20 05:30:29;;;;;;;36.90;32.35;;;;;;;13.93;97.97;101912.22;5034478;28;20029;-75
2022/05/20 05:32:54;;;;;;;39.80;32.25;;;;;;;13.95;98.27;101909.28;5033246;28;20056;-76
2022/05/20 05:35:23;;;;;;;35.08;31.38;;;;;;;13.97;97.87;101899.84;5034261;28;20373;-76
2022/05/20 05:37:49;;;;;;;35.15;31.42;;;;;;;14.07;98.07;101893.94;5034300;28;20457;-76
2022/05/20 05:40:17;;;;;;;35.80;31.42;;;;;;;14.05;97.41;101889.75;5034379;28;20040;-75
2022/05/20 05:42:42;;;;;;;35.13;31.35;;;;;;;14.12;97.79;101885.09;5025359;28;20056;-76
2022/05/20 05:45:09;;;;;;;37.15;32.35;;;;;;;14.13;97.66;101882.16;5017267;28;20481;-79
2022/05/20 05:47:35;;;;;;;37.58;31.25;;;;;;;14.20;98.10;101876.63;5027390;28;20087;-78
2022/05/20 05:50:00;;;;;;;34.65;30.92;;;;;;;14.30;97.58;101885.13;5016390;28;20029;-80
2022/05/20 05:52:25;;;;;;;35.25;31.10;;;;;;;14.29;97.91;101882.63;5033899;28;20392;-77
2022/05/20 05:54:51;;;;;;;36.50;30.52;;;;;;;14.33;97.93;101879.22;5016386;28;20457;-78
2022/05/20 05:57:16;;;;;;;32.58;28.77;;;;;;;14.36;97.29;101867.88;5015969;28;20033;-77
2022/05/20 05:59:41;;;;;;;35.13;30.10;;;;;;;14.40;98.03;101878.31;5033742;28;20396;-78
2022/05/20 06:02:08;;;;;;;31.65;27.25;;;;;;;14.51;97.56;101878.41;5031301;28;20119;-78
2022/05/20 06:04:33;;;;;;;33.35;26.40;;;;;;;14.55;96.82;101881.50;5012939;28;20072;-77
2022/05/20 06:06:59;;;;;;;30.83;25.63;;;;;;;14.54;96.79;101877.13;5030114;28;20060;-77
2022/05/20 06:09:24;;;;;;;30.00;24.83;;;;;;;14.65;96.29;101873.69;5008946;28;20049;-78
2022/05/20 06:11:50;;;;;;;29.48;24.80;;;;;;;14.75;95.77;101875.03;5013345;28;20540;-77
2022/05/20 06:14:16;;;;;;;28.27;23.98;;;;;;;14.78;95.10;101880.03;4996267;28;20021;-78
2022/05/20 06:16:41;;;;;;;29.80;23.65;;;;;;;14.83;95.50;101870.09;4996206;28;20034;-78
2022/05/20 06:19:07;;;;;;;27.08;22.48;;;;;;;14.89;95.92;101862.91;5003542;28;20060;-77
2022/05/20 06:21:33;;;;;;;26.50;21.23;;;;;;;14.99;94.01;101876.84;5014050;28;20112;-78
2022/05/20 06:24:01;;;;;;;25.58;21.10;;;;;;;15.06;95.23;101869.38;4996246;28;20032;-78
2022/05/20 06:26:29;;;;;;;25.35;20.35;;;;;;;15.12;94.12;101864.09;4996709;28;20034;-78
2022/05/20 06:28:54;;;;;;;23.70;18.30;;;;;;;15.20;92.99;101869.22;5002066;28;20084;-77
2022/05/20 06:31:20;;;;;;;25.30;18.92;;;;;;;15.24;92.99;101860.34;5015601;28;20033;-77
2022/05/20 06:33:45;;;;;;;21.13;18.58;;;;;;;15.22;92.88;101864.38;5033184;28;20029;-77
2022/05/20 06:41:39;;;;;;;22.67;15.48;;;;;;;15.28;89.38;101840.78;5053858;28;20048;-76
2022/05/20 06:44:05;;;;;;;22.55;16.20;;;;;;;15.31;90.09;101838.44;5050547;28;20033;-76
2022/05/20 06:46:31;;;;;;;21.23;15.13;;;;;;;15.38;90.64;101838.31;5047760;28;20036;-76
2022/05/20 06:48:56;;;;;;;16.58;14.65;;;;;;;15.53;89.88;101840.63;5024102;28;20034;-76
2022/05/20 06:51:24;;;;;;;20.67;14.52;;;;;;;15.52;89.09;101831.63;5032446;28;20029;-76
2022/05/20 06:53:52;;;;;;;19.90;14.48;;;;;;;15.62;88.64;101838.38;5033402;28;20053;-76
2022/05/20 06:56:18;;;;;;;17.13;13.40;;;;;;;15.62;86.10;101844.66;5015369;28;20232;-77
2022/05/20 06:58:44;;;;;;;18.38;14.45;;;;;;;15.61;86.98;101837.56;5031510;28;20034;-76
2022/05/20 07:01:10;;;;;;;18.40;14.93;;;;;;;15.67;88.03;101831.16;5030548;28;20449;-77
2022/05/20 07:03:35;;;;;;;19.23;14.70;;;;;;;15.80;89.22;101834.78;5033016;28;20033;-77
2022/05/20 07:06:03;;;;;;;21.02;14.20;;;;;;;15.91;87.57;101828.47;5031562;28;20037;-76
2022/05/20 07:08:28;;;;;;;21.27;14.35;;;;;;;15.93;87.19;101827.19;5032500;28;20052;-77
2022/05/20 07:10:54;;;;;;;17.52;14.27;;;;;;;16.00;87.10;101828.94;5032633;28;20033;-77
2022/05/20 07:13:19;;;;;;;21.13;14.07;;;;;;;16.00;86.56;101812.56;5032936;28;20377;-77
2022/05/20 07:15:44;;;;;;;19.35;13.48;;;;;;;16.04;86.45;101817.31;5024708;28;20472;-77
2022/05/20 07:18:09;;;;;;;19.13;12.10;;;;;;;16.06;85.92;101807.00;5015058;28;20040;-77
2022/05/20 07:20:35;;;;;;;15.52;11.43;;;;;;;16.09;85.06;101797.50;5032793;28;20453;-77
2022/05/20 07:23:00;;;;;;;17.73;11.00;;;;;;;16.16;83.58;101805.56;5014916;28;20032;-77
2022/05/20 07:25:25;;;;;;;16.50;11.07;;;;;;;16.18;83.48;101798.78;5031977;28;20041;-77
2022/05/20 07:27:51;;;;;;;14.45;10.50;;;;;;;16.28;82.94;101807.19;5032535;28;20036;-77
2022/05/20 07:30:17;;;;;;;14.60;10.68;;;;;;;16.36;84.22;101797.81;5032340;28;20124;-77
2022/05/20 07:32:42;;;;;;;13.93;9.80;;;;;;;16.46;82.06;101791.75;5014766;28;20045;-77
2022/05/20 07:35:11;;;;;;;14.18;9.07;;;;;;;16.58;82.74;101791.72;5012315;28;20540;-77
2022/05/20 07:37:37;;;;;;;15.40;8.88;;;;;;;16.64;81.54;101796.19;5032475;28;20045;-77
2022/05/20 07:40:03;;;;;;;15.43;8.70;;;;;;;16.73;80.10;101792.00;5014471;28;20453;-74
2022/05/20 07:42:29;;;;;;;14.00;9.18;;;;;;;16.79;82.47;101788.31;5011205;28;20034;-74
2022/05/20 07:44:54;;;;;;;15.32;7.22;;;;;;;16.89;80.71;101793.16;5020994;28;20100;-76
2022/05/20 07:47:20;;;;;;;12.40;6.68;;;;;;;16.97;79.22;101784.56;5031736;28;20453;-74
2022/05/20 07:49:46;;;;;;;11.43;7.03;;;;;;;17.06;77.93;101768.59;5006918;28;20033;-74
2022/05/20 07:52:13;;;;;;;13.15;6.78;;;;;;;17.15;76.55;101763.53;5021563;28;20404;-74
2022/05/20 07:54:44;;;;;;;10.75;6.60;;;;;;;17.21;75.47;101753.53;5029380;28;20037;-74
2022/05/20 07:57:13;;;;;;;14.85;6.47;;;;;;;17.32;77.17;101760.84;5031098;28;20033;-74
2022/05/20 07:59:52;;;;;;;12.05;6.70;;;;;;;17.45;74.88;101765.13;5035408;28;20691;-76
2022/05/20 08:02:22;;;;;;;11.23;7.30;;;;;;;17.44;74.00;101756.09;5033935;28;20595;-75
2022/05/20 08:04:58;;;;;;;11.02;6.70;;;;;;;17.52;73.39;101752.13;5035633;28;20373;-75
2022/05/20 08:07:32;;;;;;;12.35;6.28;;;;;;;17.58;72.91;101742.91;5034348;28;20044;-75
2022/05/20 08:09:59;;;;;;;10.00;6.13;;;;;;;17.61;72.37;101744.31;5035348;28;20034;-75
2022/05/20 08:12:25;;;;;;;11.63;5.70;;;;;;;17.72;72.49;101746.13;5035772;28;20064;-75
2022/05/20 08:14:50;;;;;;;12.00;6.43;;;;;;;17.79;70.37;101745.97;5036114;28;20116;-78
2022/05/20 08:17:19;;;;;;;12.20;6.30;;;;;;;17.79;72.84;101749.50;5034864;28;20363;-78
2022/05/20 08:19:44;;;;;;;13.75;5.82;;;;;;;17.83;71.75;101747.09;5018012;28;20033;-78
2022/05/20 08:22:09;;;;;;;10.68;6.05;;;;;;;17.89;70.21;101741.47;5017296;28;20116;-78
2022/05/20 08:24:35;;;;;;;11.43;6.25;;;;;;;17.96;69.79;101740.47;5017770;28;20026;-78
2022/05/20 08:27:00;;;;;;;10.23;6.25;;;;;;;18.02;68.17;101736.72;5035331;28;20041;-78
2022/05/20 08:29:25;;;;;;;13.43;6.40;;;;;;;18.03;67.39;101735.66;5035615;28;20091;-78
2022/05/20 08:31:51;;;;;;;16.30;7.55;;;;;;;18.03;66.75;101731.00;5035046;28;20033;-78
2022/05/20 08:34:16;;;;;;;10.23;6.18;;;;;;;18.03;67.39;101730.16;5034639;28;20457;-77
2022/05/20 08:36:42;;;;;;;13.18;7.10;;;;;;;18.03;69.77;101720.03;5035542;28;20029;-78
2022/05/20 08:39:12;;;;;;;12.02;7.18;;;;;;;18.06;68.66;101718.69;5019659;28;20385;-78
2022/05/20 08:41:41;;;;;;;12.07;7.38;;;;;;;18.03;69.20;101711.00;5042465;28;20030;-77
2022/05/20 08:44:12;;;;;;;11.40;7.40;;;;;;;18.03;68.90;101698.13;5039419;28;20038;-78
2022/05/20 08:46:39;;;;;;;12.52;8.10;;;;;;;18.04;70.45;101688.84;5018357;28;20080;-78
2022/05/20 08:49:08;;;;;;;13.25;8.02;;;;;;;18.06;69.36;101680.34;5035237;28;20469;-78
2022/05/20 08:51:34;;;;;;;12.73;8.07;;;;;;;18.10;70.16;101667.81;5035687;28;20033;-78
2022/05/20 08:54:02;;;;;;;13.57;8.38;;;;;;;18.20;70.67;101665.19;5034947;28;20392;-78
2022/05/20 08:56:28;;;;;;;13.65;8.20;;;;;;;18.33;71.86;101658.47;5035782;28;20033;-78
2022/05/20 08:59:00;;;;;;;12.82;8.52;;;;;;;18.42;69.41;101661.59;5035239;28;20025;-78
2022/05/20 09:01:30;;;;;;;13.45;8.52;;;;;;;18.47;70.60;101674.53;5015694;28;20064;-78
2022/05/20 09:03:56;;;;;;;16.52;8.77;;;;;;;18.49;70.47;101675.06;5035345;28;20037;-78
2022/05/20 09:06:23;;;;;;;13.10;9.18;;;;;;;18.47;68.89;101675.34;5017653;28;20116;-78
2022/05/20 09:09:04;;;;;;;13.82;10.00;;;;;;;18.47;71.14;101661.63;5035157;28;20087;-78
2022/05/20 09:11:29;;;;;;;17.98;10.95;;;;;;;18.44;72.74;101659.41;5037377;28;20029;-78
2022/05/20 09:17:18;;;;;;;15.00;10.20;;;;;;;18.53;71.21;101646.91;5035905;28;20076;-78
2022/05/20 09:20:00;;;;;;;17.67;10.27;;;;;;;18.66;71.76;101640.19;5017210;28;20033;-81
2022/05/20 09:22:32;;;;;;;16.33;10.57;;;;;;;18.74;71.33;101625.16;5034682;28;20046;-78
2022/05/20 09:24:57;;;;;;;;;;;;;;;18.88;72.95;101631.88;5025189;28;20106;-80
2022/05/20 09:27:32;;;;;;;22.13;10.68;;;;;;;18.91;71.23;101620.38;5034939;28;19909;-81
2022/05/20 09:30:02;;;;;;;19.48;10.85;;;;;;;19.00;68.82;101612.50;5031427;28;20018;-81
2022/05/20 09:32:38;;;;;;;18.45;11.10;;;;;;;19.06;69.71;101597.72;5026959;28;20029;-80
2022/05/20 09:35:12;;;;;;;19.42;11.80;;;;;;;19.03;67.92;101602.94;5034533;28;20035;-81
2022/05/20 09:37:38;;;;;;;18.42;11.60;;;;;;;19.01;69.42;101596.84;5016886;28;20031;-81
2022/05/20 09:40:22;;;;;;;16.15;11.65;;;;;;;19.12;70.49;101598.59;5034318;28;20041;-81
2022/05/20 09:43:06;;;;;;;18.00;11.43;;;;;;;19.28;71.74;101586.63;5000746;28;20146;-81
2022/05/20 09:45:47;;;;;;;19.02;12.07;;;;;;;19.38;71.08;101579.53;5008101;28;20037;-80
2022/05/20 09:48:45;;;;;;;19.20;12.13;;;;;;;19.47;69.98;101578.78;5014211;28;20121;-80
2022/05/20 09:51:32;;;;;;;20.88;13.60;;;;;;;19.61;72.21;101551.66;5027993;28;20109;-80
2022/05/20 09:54:28;;;;;;;19.83;12.25;;;;;;;19.71;70.98;101539.88;5017208;28;20048;-80
2022/05/20 09:56:58;;;;;;;16.63;11.10;;;;;;;19.83;69.24;101550.66;5032015;28;20050;-80
2022/05/20 09:59:49;;;;;;;19.27;14.07;;;;;;;19.83;69.23;101547.91;5015951;28;20037;-80
2022/05/20 10:02:33;;;;;;;19.90;13.27;;;;;;;19.87;69.87;101532.53;4993608;28;20057;-80
2022/05/20 10:05:20;;;;;;;24.75;12.80;;;;;;;19.93;69.10;101512.22;4977655;28;20489;-81
2022/05/20 10:07:54;;;;;;;22.92;13.20;;;;;;;19.99;68.65;101493.84;4963896;28;20041;-80
2022/05/20 10:10:45;;;;;;;17.85;13.00;;;;;;;20.03;69.36;101505.91;4982906;28;20189;-78
2022/05/20 10:13:21;;;;;;;;;;;;;;;20.10;70.75;101489.16;5014439;28;20025;-80
2022/05/20 10:15:51;;;;;;;23.02;13.23;;;;;;;20.12;69.68;101486.97;4995800;28;19924;-83
2022/05/20 10:18:35;;;;;;;21.55;13.10;;;;;;;20.17;70.00;101487.81;5014260;28;20397;-83
2022/05/20 10:21:07;;;;;;;19.95;13.55;;;;;;;20.21;69.50;101479.81;5015148;28;20029;-83
2022/05/20 10:23:53;;;;;;;19.70;12.75;;;;;;;20.25;68.84;101466.38;5014949;28;20037;-84
2022/05/20 10:26:37;;;;;;;22.35;12.82;;;;;;;20.24;68.72;101457.28;5014277;28;20069;-81
2022/05/20 10:32:49;;;;;;;;;;;;;;;;;;;;;
2022/05/20 10:35:21;;;;;;;21.38;13.02;;;;;;;20.17;68.42;101443.03;5009806;28;20037;-81
2022/05/20 10:38:05;;;;;;;16.05;11.20;;;;;;;20.21;68.77;101432.28;5013493;28;20026;-80
2022/05/20 10:40:43;;;;;;;14.85;10.30;;;;;;;20.19;69.52;101425.13;5012416;28;20030;-78
2022/05/20 10:48:34;;;;;;;18.77;11.57;;;;;;;20.17;69.10;101416.34;4995883;28;20029;-80
2022/05/20 10:49:36;;;;;;;17.17;10.80;;;;;;;20.08;68.69;101373.22;5013819;28;20141;-80
2022/05/20 10:52:11;;;;;;;22.33;11.63;;;;;;;20.14;69.04;101369.34;4995831;28;20358;-80
2022/05/20 10:55:01;;;;;;;18.08;11.68;;;;;;;20.15;69.21;101358.09;4994717;28;20034;-80
2022/05/20 10:57:42;;;;;;;17.70;11.05;;;;;;;20.14;68.49;101350.13;4979118;28;20026;-79
2022/05/20 11:00:19;;;;;;;21.08;11.77;;;;;;;20.11;68.21;101332.28;4976989;28;20112;-79
2022/05/20 11:03:30;;;;;;;17.23;11.90;;;;;;;20.11;68.93;101314.97;4990689;28;20028;-79
2022/05/20 11:06:13;;;;;;;18.60;12.02;;;;;;;;;;4993513;28;20113;-79
2022/05/20 11:08:58;;;;;;;19.17;12.60;;;;;;;20.14;68.35;101281.44;5002188;28;20030;-80
2022/05/20 11:11:33;;;;;;;18.48;11.98;;;;;;;20.16;69.25;101282.81;5012860;28;20087;-79
2022/05/20 11:14:26;;;;;;;18.45;12.23;;;;;;;20.22;70.04;101269.06;4995185;28;20041;-79
2022/05/20 11:17:12;;;;;;;19.70;12.48;;;;;;;20.26;69.77;101270.13;5012691;28;20105;-79
2022/05/20 11:19:56;;;;;;;22.30;13.15;;;;;;;20.28;69.58;101274.25;4982282;28;20092;-77
2022/05/20 11:22:41;;;;;;;21.08;14.13;;;;;;;20.29;69.58;101264.94;5013242;28;20030;-81
2022/05/20 11:25:22;;;;;;;21.20;14.43;;;;;;;20.36;70.82;101257.19;5014258;28;20036;-78
2022/05/20 11:28:18;;;;;;;21.30;14.70;;;;;;;20.34;70.15;101259.41;4995631;28;20034;-79
2022/05/20 11:31:18;;;;;;;21.63;15.50;;;;;;;20.31;70.93;101251.72;5013525;28;20049;-79
2022/05/20 11:33:58;;;;;;;23.13;16.77;;;;;;;20.23;70.80;101249.56;4998739;28;20034;-80
2022/05/20 11:36:38;;;;;;;26.17;17.55;;;;;;;20.19;72.17;101259.47;5029954;28;20021;-79
2022/05/20 11:39:34;;;;;;;25.92;19.08;;;;;;;20.13;72.55;101242.16;5017414;28;20034;-80
2022/05/20 11:42:18;;;;;;;26.88;18.95;;;;;;;20.05;74.05;101237.25;5018622;28;20104;-80
2022/05/20 11:44:43;;;;;;;24.20;17.63;;;;;;;20.03;74.49;101230.38;5018133;28;20030;-80
2022/05/20 11:47:32;;;;;;;28.17;19.38;;;;;;;20.01;73.59;101230.66;5000278;28;20034;-80
2022/05/20 11:50:04;;;;;;;22.00;18.45;;;;;;;19.97;74.70;101221.31;5002732;28;20068;-79
2022/05/20 11:52:34;;;;;;;;;;;;;;;20.01;74.37;101208.69;5036585;28;20058;-80
2022/05/20 11:55:02;;;;;;;26.80;18.55;;;;;;;19.85;76.67;101180.44;5041846;28;19913;-80
2022/05/20 11:57:35;;;;;;;27.35;19.55;;;;;;;19.80;75.96;101170.28;5037569;28;20033;-80
2022/05/20 12:00:05;;;;;;;28.48;19.30;;;;;;;19.77;76.69;101197.47;5036444;28;20025;-80